sensor_id;sensor_type;location;lat;lon;timestamp;P1;durP1;ratioP1;P2;durP2;ratioP2
16766;SDS011;8501;49.926;8.404;2023-04-25T00:00:31;8.43;;;6.20;;
16766;SDS011;8501;49.926;8.404;2023-04-25T00:02:57;9.03;;;5.67;;
16766;SDS011;8501;49.926;8.404;2023-04-25T00:05:24;7.97;;;5.63;;
16766;SDS011;8501;49.926;8.404;2023-04-25T00:07:50;8.77;;;5.90;;
16766;SDS011;8501;49.926;8.404;2023-04-25T00:10:16;9.03;;;5.90;;
16766;SDS011;8501;49.926;8.404;2023-04-25T00:12:42;8.40;;;6.13;;
16766;SDS011;8501;49.926;8.404;2023-04-25T00:15:08;8.27;;;5.77;;
16766;SDS011;8501;49.926;8.404;2023-04-25T00:17:34;7.43;;;5.67;;
16766;SDS011;8501;49.926;8.404;2023-04-25T00:20:00;7.97;;;5.70;;
16766;SDS011;8501;49.926;8.404;2023-04-25T00:22:29;7.60;;;5.87;;
16766;SDS011;8501;49.926;8.404;2023-04-25T00:24:55;9.03;;;6.00;;
16766;SDS011;8501;49.926;8.404;2023-04-25T00:27:22;8.23;;;5.80;;
16766;SDS011;8501;49.926;8.404;2023-04-25T00:29:47;8.60;;;5.30;;
16766;SDS011;8501;49.926;8.404;2023-04-25T00:32:13;7.80;;;5.47;;
16766;SDS011;8501;49.926;8.404;2023-04-25T00:34:38;7.87;;;5.47;;
16766;SDS011;8501;49.926;8.404;2023-04-25T00:37:04;7.07;;;5.50;;
16766;SDS011;8501;49.926;8.404;2023-04-25T00:39:30;8.00;;;5.60;;
16766;SDS011;8501;49.926;8.404;2023-04-25T00:41:56;7.70;;;5.07;;
16766;SDS011;8501;49.926;8.404;2023-04-25T00:44:22;8.53;;;5.63;;
16766;SDS011;8501;49.926;8.404;2023-04-25T00:46:49;8.13;;;5.50;;
16766;SDS011;8501;49.926;8.404;2023-04-25T00:49:15;8.37;;;5.83;;
16766;SDS011;8501;49.926;8.404;2023-04-25T00:51:42;7.70;;;5.37;;
16766;SDS011;8501;49.926;8.404;2023-04-25T00:54:09;7.40;;;5.57;;
16766;SDS011;8501;49.926;8.404;2023-04-25T00:56:39;8.07;;;6.10;;
16766;SDS011;8501;49.926;8.404;2023-04-25T00:59:05;7.60;;;5.73;;
16766;SDS011;8501;49.926;8.404;2023-04-25T01:01:31;8.30;;;6.00;;
16766;SDS011;8501;49.926;8.404;2023-04-25T01:03:58;9.27;;;6.53;;
16766;SDS011;8501;49.926;8.404;2023-04-25T01:06:24;8.37;;;5.70;;
16766;SDS011;8501;49.926;8.404;2023-04-25T01:08:51;8.37;;;5.93;;
16766;SDS011;8501;49.926;8.404;2023-04-25T01:11:16;8.60;;;5.90;;
16766;SDS011;8501;49.926;8.404;2023-04-25T01:13:43;9.57;;;5.73;;
16766;SDS011;8501;49.926;8.404;2023-04-25T01:16:08;9.53;;;6.40;;
16766;SDS011;8501;49.926;8.404;2023-04-25T01:18:34;9.40;;;6.50;;
16766;SDS011;8501;49.926;8.404;2023-04-25T01:21:06;9.93;;;6.90;;
16766;SDS011;8501;49.926;8.404;2023-04-25T01:23:33;9.23;;;6.33;;
16766;SDS011;8501;49.926;8.404;2023-04-25T01:25:59;10.30;;;6.60;;
16766;SDS011;8501;49.926;8.404;2023-04-25T01:28:26;9.80;;;6.30;;
16766;SDS011;8501;49.926;8.404;2023-04-25T01:30:52;9.00;;;6.57;;
16766;SDS011;8501;49.926;8.404;2023-04-25T01:33:18;8.63;;;6.23;;
16766;SDS011;8501;49.926;8.404;2023-04-25T01:35:45;8.97;;;6.30;;
16766;SDS011;8501;49.926;8.404;2023-04-25T01:38:12;8.47;;;5.93;;
16766;SDS011;8501;49.926;8.404;2023-04-25T01:40:38;10.73;;;6.70;;
16766;SDS011;8501;49.926;8.404;2023-04-25T01:43:05;9.47;;;6.40;;
16766;SDS011;8501;49.926;8.404;2023-04-25T01:45:31;9.27;;;6.40;;
16766;SDS011;8501;49.926;8.404;2023-04-25T01:47:56;8.80;;;6.33;;
16766;SDS011;8501;49.926;8.404;2023-04-25T01:50:24;10.17;;;6.57;;
16766;SDS011;8501;49.926;8.404;2023-04-25T01:52:50;8.73;;;5.83;;
16766;SDS011;8501;49.926;8.404;2023-04-25T01:55:16;11.77;;;7.10;;
16766;SDS011;8501;49.926;8.404;2023-04-25T01:57:41;9.43;;;6.73;;
16766;SDS011;8501;49.926;8.404;2023-04-25T02:00:07;11.67;;;7.20;;
16766;SDS011;8501;49.926;8.404;2023-04-25T02:02:34;10.00;;;6.53;;
16766;SDS011;8501;49.926;8.404;2023-04-25T02:05:00;10.30;;;6.77;;
16766;SDS011;8501;49.926;8.404;2023-04-25T02:07:26;10.30;;;7.00;;
16766;SDS011;8501;49.926;8.404;2023-04-25T02:09:51;9.90;;;7.00;;
16766;SDS011;8501;49.926;8.404;2023-04-25T02:12:17;10.13;;;6.90;;
16766;SDS011;8501;49.926;8.404;2023-04-25T02:14:43;11.23;;;7.37;;
16766;SDS011;8501;49.926;8.404;2023-04-25T02:17:08;9.67;;;6.53;;
16766;SDS011;8501;49.926;8.404;2023-04-25T02:19:34;10.17;;;6.90;;
16766;SDS011;8501;49.926;8.404;2023-04-25T02:21:59;9.30;;;6.83;;
16766;SDS011;8501;49.926;8.404;2023-04-25T02:24:26;10.80;;;7.03;;
16766;SDS011;8501;49.926;8.404;2023-04-25T02:26:52;9.67;;;6.73;;
16766;SDS011;8501;49.926;8.404;2023-04-25T02:29:20;10.60;;;6.90;;
16766;SDS011;8501;49.926;8.404;2023-04-25T02:31:45;12.67;;;7.60;;
16766;SDS011;8501;49.926;8.404;2023-04-25T02:34:11;9.83;;;6.57;;
16766;SDS011;8501;49.926;8.404;2023-04-25T02:36:36;11.03;;;7.33;;
16766;SDS011;8501;49.926;8.404;2023-04-25T02:39:02;11.37;;;7.20;;
16766;SDS011;8501;49.926;8.404;2023-04-25T02:41:28;12.67;;;7.60;;
16766;SDS011;8501;49.926;8.404;2023-04-25T02:43:53;10.77;;;7.10;;
16766;SDS011;8501;49.926;8.404;2023-04-25T02:46:19;11.30;;;7.70;;
16766;SDS011;8501;49.926;8.404;2023-04-25T02:48:45;11.53;;;7.40;;
16766;SDS011;8501;49.926;8.404;2023-04-25T02:51:10;10.37;;;6.60;;
16766;SDS011;8501;49.926;8.404;2023-04-25T02:53:36;11.33;;;7.63;;
16766;SDS011;8501;49.926;8.404;2023-04-25T02:56:02;11.67;;;7.60;;
16766;SDS011;8501;49.926;8.404;2023-04-25T02:58:27;11.73;;;7.70;;
16766;SDS011;8501;49.926;8.404;2023-04-25T03:00:53;11.40;;;7.40;;
16766;SDS011;8501;49.926;8.404;2023-04-25T03:03:19;11.40;;;7.53;;
16766;SDS011;8501;49.926;8.404;2023-04-25T03:05:47;13.50;;;7.30;;
16766;SDS011;8501;49.926;8.404;2023-04-25T03:08:16;12.07;;;7.70;;
16766;SDS011;8501;49.926;8.404;2023-04-25T03:10:42;10.57;;;6.77;;
16766;SDS011;8501;49.926;8.404;2023-04-25T03:13:08;10.30;;;7.43;;
16766;SDS011;8501;49.926;8.404;2023-04-25T03:15:34;11.37;;;7.00;;
16766;SDS011;8501;49.926;8.404;2023-04-25T03:18:01;12.10;;;7.30;;
16766;SDS011;8501;49.926;8.404;2023-04-25T03:20:26;10.60;;;7.57;;
16766;SDS011;8501;49.926;8.404;2023-04-25T03:22:52;12.90;;;7.77;;
16766;SDS011;8501;49.926;8.404;2023-04-25T03:25:18;12.37;;;7.73;;
16766;SDS011;8501;49.926;8.404;2023-04-25T03:27:43;12.30;;;7.87;;
16766;SDS011;8501;49.926;8.404;2023-04-25T03:30:09;11.23;;;7.07;;
16766;SDS011;8501;49.926;8.404;2023-04-25T03:32:35;11.63;;;7.80;;
16766;SDS011;8501;49.926;8.404;2023-04-25T03:35:00;11.13;;;7.83;;
16766;SDS011;8501;49.926;8.404;2023-04-25T03:37:26;11.13;;;7.43;;
16766;SDS011;8501;49.926;8.404;2023-04-25T03:39:51;12.20;;;7.87;;
16766;SDS011;8501;49.926;8.404;2023-04-25T03:42:17;11.80;;;7.40;;
16766;SDS011;8501;49.926;8.404;2023-04-25T03:44:42;12.30;;;7.87;;
16766;SDS011;8501;49.926;8.404;2023-04-25T03:47:08;11.60;;;7.73;;
16766;SDS011;8501;49.926;8.404;2023-04-25T03:49:34;12.40;;;8.50;;
16766;SDS011;8501;49.926;8.404;2023-04-25T03:52:01;10.53;;;7.63;;
16766;SDS011;8501;49.926;8.404;2023-04-25T03:54:26;15.10;;;8.10;;
16766;SDS011;8501;49.926;8.404;2023-04-25T03:56:52;12.13;;;7.97;;
16766;SDS011;8501;49.926;8.404;2023-04-25T03:59:18;13.30;;;8.73;;
16766;SDS011;8501;49.926;8.404;2023-04-25T04:01:43;12.17;;;8.23;;
16766;SDS011;8501;49.926;8.404;2023-04-25T04:04:09;13.87;;;8.57;;
16766;SDS011;8501;49.926;8.404;2023-04-25T04:06:34;12.30;;;8.80;;
16766;SDS011;8501;49.926;8.404;2023-04-25T04:09:01;15.63;;;8.50;;
16766;SDS011;8501;49.926;8.404;2023-04-25T04:11:27;12.50;;;8.57;;
16766;SDS011;8501;49.926;8.404;2023-04-25T04:13:52;15.80;;;9.00;;
16766;SDS011;8501;49.926;8.404;2023-04-25T04:16:18;18.07;;;10.40;;
16766;SDS011;8501;49.926;8.404;2023-04-25T04:18:44;18.10;;;10.20;;
16766;SDS011;8501;49.926;8.404;2023-04-25T04:21:10;16.50;;;9.67;;
16766;SDS011;8501;49.926;8.404;2023-04-25T04:23:36;16.80;;;10.03;;
16766;SDS011;8501;49.926;8.404;2023-04-25T04:26:02;17.50;;;10.13;;
16766;SDS011;8501;49.926;8.404;2023-04-25T04:28:28;16.73;;;10.10;;
16766;SDS011;8501;49.926;8.404;2023-04-25T04:30:53;14.53;;;9.57;;
16766;SDS011;8501;49.926;8.404;2023-04-25T04:33:19;15.80;;;9.97;;
16766;SDS011;8501;49.926;8.404;2023-04-25T04:35:44;18.17;;;10.20;;
16766;SDS011;8501;49.926;8.404;2023-04-25T04:38:11;14.93;;;9.07;;
16766;SDS011;8501;49.926;8.404;2023-04-25T04:40:39;18.30;;;8.57;;
16766;SDS011;8501;49.926;8.404;2023-04-25T04:43:06;16.07;;;8.37;;
16766;SDS011;8501;49.926;8.404;2023-04-25T04:45:33;13.90;;;8.30;;
16766;SDS011;8501;49.926;8.404;2023-04-25T04:47:59;17.13;;;8.77;;
16766;SDS011;8501;49.926;8.404;2023-04-25T04:50:25;13.47;;;8.20;;
16766;SDS011;8501;49.926;8.404;2023-04-25T04:52:51;15.37;;;7.70;;
16766;SDS011;8501;49.926;8.404;2023-04-25T04:55:17;16.23;;;7.73;;
16766;SDS011;8501;49.926;8.404;2023-04-25T04:57:42;14.93;;;7.97;;
16766;SDS011;8501;49.926;8.404;2023-04-25T05:00:08;16.37;;;8.40;;
16766;SDS011;8501;49.926;8.404;2023-04-25T05:02:36;18.00;;;8.13;;
16766;SDS011;8501;49.926;8.404;2023-04-25T05:05:05;14.67;;;7.13;;
16766;SDS011;8501;49.926;8.404;2023-04-25T05:07:31;14.70;;;7.33;;
16766;SDS011;8501;49.926;8.404;2023-04-25T05:09:56;19.27;;;8.73;;
16766;SDS011;8501;49.926;8.404;2023-04-25T05:12:22;16.20;;;7.53;;
16766;SDS011;8501;49.926;8.404;2023-04-25T05:14:47;21.60;;;9.60;;
16766;SDS011;8501;49.926;8.404;2023-04-25T05:17:13;16.63;;;8.40;;
16766;SDS011;8501;49.926;8.404;2023-04-25T05:19:38;17.93;;;8.30;;
16766;SDS011;8501;49.926;8.404;2023-04-25T05:22:04;21.20;;;9.10;;
16766;SDS011;8501;49.926;8.404;2023-04-25T05:24:30;18.43;;;9.77;;
16766;SDS011;8501;49.926;8.404;2023-04-25T05:26:55;19.83;;;10.90;;
16766;SDS011;8501;49.926;8.404;2023-04-25T05:29:21;24.03;;;11.87;;
16766;SDS011;8501;49.926;8.404;2023-04-25T05:31:47;23.30;;;10.70;;
16766;SDS011;8501;49.926;8.404;2023-04-25T05:34:13;18.77;;;9.10;;
16766;SDS011;8501;49.926;8.404;2023-04-25T05:36:38;21.47;;;8.83;;
16766;SDS011;8501;49.926;8.404;2023-04-25T05:39:04;24.67;;;9.03;;
16766;SDS011;8501;49.926;8.404;2023-04-25T05:41:31;21.57;;;8.20;;
16766;SDS011;8501;49.926;8.404;2023-04-25T05:43:56;21.33;;;8.53;;
16766;SDS011;8501;49.926;8.404;2023-04-25T05:46:22;22.23;;;8.00;;
16766;SDS011;8501;49.926;8.404;2023-04-25T05:48:48;17.83;;;8.40;;
16766;SDS011;8501;49.926;8.404;2023-04-25T05:51:13;18.93;;;8.23;;
16766;SDS011;8501;49.926;8.404;2023-04-25T05:53:39;21.50;;;8.53;;
16766;SDS011;8501;49.926;8.404;2023-04-25T05:56:04;20.70;;;8.50;;
16766;SDS011;8501;49.926;8.404;2023-04-25T05:58:31;18.10;;;8.17;;
16766;SDS011;8501;49.926;8.404;2023-04-25T06:00:56;14.43;;;7.47;;
16766;SDS011;8501;49.926;8.404;2023-04-25T06:03:23;13.97;;;7.20;;
16766;SDS011;8501;49.926;8.404;2023-04-25T06:05:48;14.83;;;7.17;;
16766;SDS011;8501;49.926;8.404;2023-04-25T06:08:14;13.83;;;6.73;;
16766;SDS011;8501;49.926;8.404;2023-04-25T06:10:39;16.90;;;7.47;;
16766;SDS011;8501;49.926;8.404;2023-04-25T06:13:05;13.97;;;6.60;;
16766;SDS011;8501;49.926;8.404;2023-04-25T06:15:30;14.50;;;6.70;;
16766;SDS011;8501;49.926;8.404;2023-04-25T06:17:57;13.53;;;6.13;;
16766;SDS011;8501;49.926;8.404;2023-04-25T06:20:23;15.17;;;6.43;;
16766;SDS011;8501;49.926;8.404;2023-04-25T06:22:49;14.70;;;5.93;;
16766;SDS011;8501;49.926;8.404;2023-04-25T06:25:16;17.97;;;6.87;;
16766;SDS011;8501;49.926;8.404;2023-04-25T06:27:42;12.30;;;6.00;;
16766;SDS011;8501;49.926;8.404;2023-04-25T06:30:08;12.67;;;6.53;;
16766;SDS011;8501;49.926;8.404;2023-04-25T06:32:34;15.47;;;6.87;;
16766;SDS011;8501;49.926;8.404;2023-04-25T06:35:00;17.30;;;6.60;;
16766;SDS011;8501;49.926;8.404;2023-04-25T06:37:26;14.17;;;6.70;;
16766;SDS011;8501;49.926;8.404;2023-04-25T06:39:51;13.00;;;6.33;;
16766;SDS011;8501;49.926;8.404;2023-04-25T06:42:17;13.43;;;6.80;;
16766;SDS011;8501;49.926;8.404;2023-04-25T06:44:43;15.23;;;6.60;;
16766;SDS011;8501;49.926;8.404;2023-04-25T06:47:08;16.40;;;7.67;;
16766;SDS011;8501;49.926;8.404;2023-04-25T06:49:34;14.57;;;6.87;;
16766;SDS011;8501;49.926;8.404;2023-04-25T06:51:59;13.27;;;6.53;;
16766;SDS011;8501;49.926;8.404;2023-04-25T06:54:25;15.87;;;6.90;;
16766;SDS011;8501;49.926;8.404;2023-04-25T06:56:52;14.87;;;6.77;;
16766;SDS011;8501;49.926;8.404;2023-04-25T06:59:18;15.33;;;7.00;;
16766;SDS011;8501;49.926;8.404;2023-04-25T07:01:44;17.33;;;7.20;;
16766;SDS011;8501;49.926;8.404;2023-04-25T07:04:09;16.10;;;6.90;;
16766;SDS011;8501;49.926;8.404;2023-04-25T07:06:35;15.30;;;7.27;;
16766;SDS011;8501;49.926;8.404;2023-04-25T07:09:03;15.27;;;6.70;;
16766;SDS011;8501;49.926;8.404;2023-04-25T07:11:29;15.60;;;6.77;;
16766;SDS011;8501;49.926;8.404;2023-04-25T07:13:55;13.97;;;6.47;;
16766;SDS011;8501;49.926;8.404;2023-04-25T07:16:20;13.73;;;6.40;;
16766;SDS011;8501;49.926;8.404;2023-04-25T07:18:46;11.27;;;6.10;;
16766;SDS011;8501;49.926;8.404;2023-04-25T07:21:11;12.53;;;6.27;;
16766;SDS011;8501;49.926;8.404;2023-04-25T07:23:37;13.37;;;5.80;;
16766;SDS011;8501;49.926;8.404;2023-04-25T07:26:05;11.73;;;6.20;;
16766;SDS011;8501;49.926;8.404;2023-04-25T07:28:31;12.73;;;6.23;;
16766;SDS011;8501;49.926;8.404;2023-04-25T07:30:57;11.13;;;6.03;;
16766;SDS011;8501;49.926;8.404;2023-04-25T07:33:23;15.20;;;5.90;;
16766;SDS011;8501;49.926;8.404;2023-04-25T07:35:48;11.70;;;6.37;;
16766;SDS011;8501;49.926;8.404;2023-04-25T07:38:15;12.70;;;6.40;;
16766;SDS011;8501;49.926;8.404;2023-04-25T07:40:40;14.03;;;6.63;;
16766;SDS011;8501;49.926;8.404;2023-04-25T07:43:06;15.70;;;6.07;;
16766;SDS011;8501;49.926;8.404;2023-04-25T07:45:33;10.50;;;5.30;;
16766;SDS011;8501;49.926;8.404;2023-04-25T07:47:58;11.63;;;5.33;;
16766;SDS011;8501;49.926;8.404;2023-04-25T07:50:25;9.53;;;5.57;;
16766;SDS011;8501;49.926;8.404;2023-04-25T07:52:50;12.67;;;5.83;;
16766;SDS011;8501;49.926;8.404;2023-04-25T07:55:16;12.93;;;6.40;;
16766;SDS011;8501;49.926;8.404;2023-04-25T07:57:41;11.00;;;6.17;;
16766;SDS011;8501;49.926;8.404;2023-04-25T08:00:07;10.63;;;5.50;;
16766;SDS011;8501;49.926;8.404;2023-04-25T08:02:36;12.43;;;5.90;;
16766;SDS011;8501;49.926;8.404;2023-04-25T08:05:02;14.07;;;5.73;;
16766;SDS011;8501;49.926;8.404;2023-04-25T08:07:28;13.23;;;5.87;;
16766;SDS011;8501;49.926;8.404;2023-04-25T08:09:54;9.33;;;4.60;;
16766;SDS011;8501;49.926;8.404;2023-04-25T08:12:20;8.63;;;5.13;;
16766;SDS011;8501;49.926;8.404;2023-04-25T08:14:45;11.30;;;4.97;;
16766;SDS011;8501;49.926;8.404;2023-04-25T08:17:11;9.30;;;4.40;;
16766;SDS011;8501;49.926;8.404;2023-04-25T08:19:37;7.70;;;3.93;;
16766;SDS011;8501;49.926;8.404;2023-04-25T08:22:02;7.00;;;3.67;;
16766;SDS011;8501;49.926;8.404;2023-04-25T08:24:28;10.50;;;3.80;;
16766;SDS011;8501;49.926;8.404;2023-04-25T08:26:54;7.47;;;4.07;;
16766;SDS011;8501;49.926;8.404;2023-04-25T08:29:20;7.67;;;3.80;;
16766;SDS011;8501;49.926;8.404;2023-04-25T08:31:48;6.87;;;3.97;;
16766;SDS011;8501;49.926;8.404;2023-04-25T08:34:13;7.03;;;4.07;;
16766;SDS011;8501;49.926;8.404;2023-04-25T08:36:40;7.33;;;3.83;;
16766;SDS011;8501;49.926;8.404;2023-04-25T08:39:05;6.47;;;3.83;;
16766;SDS011;8501;49.926;8.404;2023-04-25T08:41:31;7.47;;;4.07;;
16766;SDS011;8501;49.926;8.404;2023-04-25T08:43:57;7.47;;;4.10;;
16766;SDS011;8501;49.926;8.404;2023-04-25T08:46:25;5.90;;;3.83;;
16766;SDS011;8501;49.926;8.404;2023-04-25T08:48:51;8.90;;;4.27;;
16766;SDS011;8501;49.926;8.404;2023-04-25T08:51:23;6.77;;;3.87;;
16766;SDS011;8501;49.926;8.404;2023-04-25T08:53:53;6.73;;;3.67;;
16766;SDS011;8501;49.926;8.404;2023-04-25T08:56:19;5.37;;;3.33;;
16766;SDS011;8501;49.926;8.404;2023-04-25T08:58:50;4.63;;;3.20;;
16766;SDS011;8501;49.926;8.404;2023-04-25T09:01:17;5.23;;;3.20;;
16766;SDS011;8501;49.926;8.404;2023-04-25T09:03:43;7.10;;;3.70;;
16766;SDS011;8501;49.926;8.404;2023-04-25T09:06:10;8.27;;;3.37;;
16766;SDS011;8501;49.926;8.404;2023-04-25T09:08:37;6.57;;;3.50;;
16766;SDS011;8501;49.926;8.404;2023-04-25T09:11:02;4.87;;;3.07;;
16766;SDS011;8501;49.926;8.404;2023-04-25T09:23:50;7.10;;;4.13;;
16766;SDS011;8501;49.926;8.404;2023-04-25T09:26:17;7.13;;;4.57;;
16766;SDS011;8501;49.926;8.404;2023-04-25T09:28:45;6.93;;;3.97;;
16766;SDS011;8501;49.926;8.404;2023-04-25T09:31:20;11.07;;;4.13;;
16766;SDS011;8501;49.926;8.404;2023-04-25T09:33:49;7.43;;;4.20;;
16766;SDS011;8501;49.926;8.404;2023-04-25T09:36:15;7.40;;;4.00;;
16766;SDS011;8501;49.926;8.404;2023-04-25T09:38:41;7.70;;;4.57;;
16766;SDS011;8501;49.926;8.404;2023-04-25T09:41:11;7.13;;;4.60;;
16766;SDS011;8501;49.926;8.404;2023-04-25T09:43:37;7.83;;;4.60;;
16766;SDS011;8501;49.926;8.404;2023-04-25T09:56:05;9.17;;;5.00;;
16766;SDS011;8501;49.926;8.404;2023-04-25T09:58:32;8.23;;;4.67;;
16766;SDS011;8501;49.926;8.404;2023-04-25T10:01:00;10.90;;;4.93;;
16766;SDS011;8501;49.926;8.404;2023-04-25T10:03:29;8.20;;;5.03;;
16766;SDS011;8501;49.926;8.404;2023-04-25T10:05:56;7.37;;;4.77;;
16766;SDS011;8501;49.926;8.404;2023-04-25T10:08:28;7.87;;;4.93;;
16766;SDS011;8501;49.926;8.404;2023-04-25T10:11:00;11.83;;;5.30;;
16766;SDS011;8501;49.926;8.404;2023-04-25T10:13:28;13.63;;;7.50;;
16766;SDS011;8501;49.926;8.404;2023-04-25T10:15:56;12.50;;;6.83;;
16766;SDS011;8501;49.926;8.404;2023-04-25T10:18:23;14.73;;;8.73;;
16766;SDS011;8501;49.926;8.404;2023-04-25T10:20:50;10.83;;;6.70;;
16766;SDS011;8501;49.926;8.404;2023-04-25T10:23:16;11.03;;;6.00;;
16766;SDS011;8501;49.926;8.404;2023-04-25T10:25:42;9.90;;;5.70;;
16766;SDS011;8501;49.926;8.404;2023-04-25T10:28:08;10.07;;;5.93;;
16766;SDS011;8501;49.926;8.404;2023-04-25T10:30:34;8.60;;;5.57;;
16766;SDS011;8501;49.926;8.404;2023-04-25T10:32:59;10.47;;;6.83;;
16766;SDS011;8501;49.926;8.404;2023-04-25T10:35:26;10.53;;;5.77;;
16766;SDS011;8501;49.926;8.404;2023-04-25T10:37:57;12.10;;;6.37;;
16766;SDS011;8501;49.926;8.404;2023-04-25T10:40:23;9.37;;;6.33;;
16766;SDS011;8501;49.926;8.404;2023-04-25T10:42:51;10.40;;;6.87;;
16766;SDS011;8501;49.926;8.404;2023-04-25T10:45:22;13.90;;;6.80;;
16766;SDS011;8501;49.926;8.404;2023-04-25T10:47:48;12.37;;;6.10;;
16766;SDS011;8501;49.926;8.404;2023-04-25T10:50:14;11.43;;;5.70;;
16766;SDS011;8501;49.926;8.404;2023-04-25T10:52:41;10.33;;;6.17;;
16766;SDS011;8501;49.926;8.404;2023-04-25T10:55:07;8.60;;;5.33;;
16766;SDS011;8501;49.926;8.404;2023-04-25T10:57:40;9.43;;;5.70;;
16766;SDS011;8501;49.926;8.404;2023-04-25T11:00:12;8.67;;;6.20;;
16766;SDS011;8501;49.926;8.404;2023-04-25T11:02:53;10.90;;;6.87;;
16766;SDS011;8501;49.926;8.404;2023-04-25T11:07:56;17.80;;;9.40;;
16766;SDS011;8501;49.926;8.404;2023-04-25T11:10:29;21.20;;;9.67;;
16766;SDS011;8501;49.926;8.404;2023-04-25T11:12:57;18.03;;;8.80;;
16766;SDS011;8501;49.926;8.404;2023-04-25T11:15:23;82.90;;;28.90;;
16766;SDS011;8501;49.926;8.404;2023-04-25T11:17:53;108.17;;;35.33;;
16766;SDS011;8501;49.926;8.404;2023-04-25T11:20:19;40.07;;;15.87;;
16766;SDS011;8501;49.926;8.404;2023-04-25T11:22:46;24.47;;;11.67;;
16766;SDS011;8501;49.926;8.404;2023-04-25T11:25:13;20.63;;;10.03;;
16766;SDS011;8501;49.926;8.404;2023-04-25T11:30:22;7.43;;;5.60;;
16766;SDS011;8501;49.926;8.404;2023-04-25T11:32:49;13.40;;;5.60;;
16766;SDS011;8501;49.926;8.404;2023-04-25T11:35:15;9.47;;;6.10;;
16766;SDS011;8501;49.926;8.404;2023-04-25T11:37:41;16.63;;;6.43;;
16766;SDS011;8501;49.926;8.404;2023-04-25T11:40:08;12.00;;;6.67;;
16766;SDS011;8501;49.926;8.404;2023-04-25T11:42:38;11.30;;;5.80;;
16766;SDS011;8501;49.926;8.404;2023-04-25T11:45:08;10.87;;;5.90;;
16766;SDS011;8501;49.926;8.404;2023-04-25T11:59:51;10.30;;;5.80;;
16766;SDS011;8501;49.926;8.404;2023-04-25T12:02:25;9.57;;;5.60;;
16766;SDS011;8501;49.926;8.404;2023-04-25T12:04:51;12.37;;;5.93;;
16766;SDS011;8501;49.926;8.404;2023-04-25T12:07:17;13.60;;;5.53;;
16766;SDS011;8501;49.926;8.404;2023-04-25T12:09:50;11.47;;;6.10;;
16766;SDS011;8501;49.926;8.404;2023-04-25T12:12:17;13.93;;;6.37;;
16766;SDS011;8501;49.926;8.404;2023-04-25T12:14:45;13.27;;;7.87;;
16766;SDS011;8501;49.926;8.404;2023-04-25T12:17:16;15.17;;;6.87;;
16766;SDS011;8501;49.926;8.404;2023-04-25T12:19:42;16.23;;;7.77;;
16766;SDS011;8501;49.926;8.404;2023-04-25T12:22:21;12.93;;;7.00;;
16766;SDS011;8501;49.926;8.404;2023-04-25T12:24:49;12.97;;;7.20;;
16766;SDS011;8501;49.926;8.404;2023-04-25T12:27:15;13.50;;;6.80;;
16766;SDS011;8501;49.926;8.404;2023-04-25T12:40:10;11.07;;;6.83;;
16766;SDS011;8501;49.926;8.404;2023-04-25T12:42:36;19.13;;;10.87;;
16766;SDS011;8501;49.926;8.404;2023-04-25T12:45:01;12.47;;;7.27;;
16766;SDS011;8501;49.926;8.404;2023-04-25T12:47:27;9.03;;;5.60;;
16766;SDS011;8501;49.926;8.404;2023-04-25T12:49:52;10.47;;;5.50;;
16766;SDS011;8501;49.926;8.404;2023-04-25T12:52:18;10.50;;;5.83;;
16766;SDS011;8501;49.926;8.404;2023-04-25T12:54:43;13.77;;;5.90;;
16766;SDS011;8501;49.926;8.404;2023-04-25T12:57:09;9.80;;;5.47;;
16766;SDS011;8501;49.926;8.404;2023-04-25T12:59:34;10.07;;;6.90;;
16766;SDS011;8501;49.926;8.404;2023-04-25T13:02:00;12.10;;;7.33;;
16766;SDS011;8501;49.926;8.404;2023-04-25T13:04:26;12.43;;;6.40;;
16766;SDS011;8501;49.926;8.404;2023-04-25T13:17:05;8.60;;;4.93;;
16766;SDS011;8501;49.926;8.404;2023-04-25T13:29:46;18.03;;;7.77;;
16766;SDS011;8501;49.926;8.404;2023-04-25T13:32:11;13.80;;;6.60;;
16766;SDS011;8501;49.926;8.404;2023-04-25T13:37:59;20.40;;;8.50;;
16766;SDS011;8501;49.926;8.404;2023-04-25T13:40:25;16.67;;;6.90;;
16766;SDS011;8501;49.926;8.404;2023-04-25T13:42:51;12.57;;;6.63;;
16766;SDS011;8501;49.926;8.404;2023-04-25T13:45:17;15.87;;;8.13;;
16766;SDS011;8501;49.926;8.404;2023-04-25T13:47:43;14.63;;;6.40;;
16766;SDS011;8501;49.926;8.404;2023-04-25T13:50:08;16.27;;;7.07;;
16766;SDS011;8501;49.926;8.404;2023-04-25T13:52:34;10.33;;;6.23;;
16766;SDS011;8501;49.926;8.404;2023-04-25T13:55:00;10.20;;;4.70;;
16766;SDS011;8501;49.926;8.404;2023-04-25T13:57:28;6.80;;;3.90;;
16766;SDS011;8501;49.926;8.404;2023-04-25T13:59:53;7.73;;;4.63;;
16766;SDS011;8501;49.926;8.404;2023-04-25T14:02:19;7.67;;;4.23;;
16766;SDS011;8501;49.926;8.404;2023-04-25T14:04:48;7.77;;;4.40;;
16766;SDS011;8501;49.926;8.404;2023-04-25T14:07:43;5.77;;;4.00;;
16766;SDS011;8501;49.926;8.404;2023-04-25T14:10:09;5.37;;;3.50;;
16766;SDS011;8501;49.926;8.404;2023-04-25T14:12:35;8.10;;;4.00;;
16766;SDS011;8501;49.926;8.404;2023-04-25T14:15:00;5.00;;;3.90;;
16766;SDS011;8501;49.926;8.404;2023-04-25T14:17:26;6.90;;;4.20;;
16766;SDS011;8501;49.926;8.404;2023-04-25T14:19:52;8.60;;;4.23;;
16766;SDS011;8501;49.926;8.404;2023-04-25T14:22:17;9.03;;;4.03;;
16766;SDS011;8501;49.926;8.404;2023-04-25T14:24:44;8.33;;;4.10;;
16766;SDS011;8501;49.926;8.404;2023-04-25T14:27:09;6.80;;;3.90;;
16766;SDS011;8501;49.926;8.404;2023-04-25T14:29:35;7.37;;;3.70;;
16766;SDS011;8501;49.926;8.404;2023-04-25T14:32:01;6.93;;;3.70;;
16766;SDS011;8501;49.926;8.404;2023-04-25T14:34:27;5.87;;;4.07;;
16766;SDS011;8501;49.926;8.404;2023-04-25T14:36:52;9.77;;;5.30;;
16766;SDS011;8501;49.926;8.404;2023-04-25T14:39:18;13.20;;;5.27;;
16766;SDS011;8501;49.926;8.404;2023-04-25T14:41:44;21.27;;;6.73;;
16766;SDS011;8501;49.926;8.404;2023-04-25T14:44:10;28.13;;;8.80;;
16766;SDS011;8501;49.926;8.404;2023-04-25T14:46:36;26.53;;;8.53;;
16766;SDS011;8501;49.926;8.404;2023-04-25T14:49:02;32.97;;;10.50;;
16766;SDS011;8501;49.926;8.404;2023-04-25T14:51:28;19.20;;;7.73;;
16766;SDS011;8501;49.926;8.404;2023-04-25T14:53:54;7.23;;;4.73;;
16766;SDS011;8501;49.926;8.404;2023-04-25T14:56:20;7.40;;;4.00;;
16766;SDS011;8501;49.926;8.404;2023-04-25T14:58:46;9.00;;;4.83;;
16766;SDS011;8501;49.926;8.404;2023-04-25T15:01:12;8.23;;;4.17;;
16766;SDS011;8501;49.926;8.404;2023-04-25T15:03:38;12.10;;;4.37;;
16766;SDS011;8501;49.926;8.404;2023-04-25T15:06:04;7.00;;;3.70;;
16766;SDS011;8501;49.926;8.404;2023-04-25T15:08:31;8.43;;;4.30;;
16766;SDS011;8501;49.926;8.404;2023-04-25T15:10:57;7.57;;;3.67;;
16766;SDS011;8501;49.926;8.404;2023-04-25T15:13:23;7.20;;;4.03;;
16766;SDS011;8501;49.926;8.404;2023-04-25T15:15:48;8.63;;;4.03;;
16766;SDS011;8501;49.926;8.404;2023-04-25T15:18:16;8.40;;;4.03;;
16766;SDS011;8501;49.926;8.404;2023-04-25T15:20:42;7.10;;;3.90;;
16766;SDS011;8501;49.926;8.404;2023-04-25T15:23:08;8.97;;;3.83;;
16766;SDS011;8501;49.926;8.404;2023-04-25T15:25:34;7.33;;;3.80;;
16766;SDS011;8501;49.926;8.404;2023-04-25T15:27:59;6.00;;;4.10;;
16766;SDS011;8501;49.926;8.404;2023-04-25T15:30:25;7.90;;;4.00;;
16766;SDS011;8501;49.926;8.404;2023-04-25T15:32:50;7.27;;;4.77;;
16766;SDS011;8501;49.926;8.404;2023-04-25T15:35:16;10.47;;;5.57;;
16766;SDS011;8501;49.926;8.404;2023-04-25T15:37:41;13.47;;;5.40;;
16766;SDS011;8501;49.926;8.404;2023-04-25T15:40:08;9.77;;;5.00;;
16766;SDS011;8501;49.926;8.404;2023-04-25T15:42:40;10.50;;;5.57;;
16766;SDS011;8501;49.926;8.404;2023-04-25T15:45:08;9.73;;;5.40;;
16766;SDS011;8501;49.926;8.404;2023-04-25T15:47:35;6.40;;;4.47;;
16766;SDS011;8501;49.926;8.404;2023-04-25T15:50:02;11.37;;;5.07;;
16766;SDS011;8501;49.926;8.404;2023-04-25T15:52:30;10.40;;;4.87;;
16766;SDS011;8501;49.926;8.404;2023-04-25T15:54:56;6.90;;;4.43;;
16766;SDS011;8501;49.926;8.404;2023-04-25T15:57:22;9.93;;;3.87;;
16766;SDS011;8501;49.926;8.404;2023-04-25T15:59:48;9.23;;;4.03;;